Time;durP1;ratioP1;P1;durP2;ratioP2;P2;SDS_P1;SDS_P2;PMS_P1;PMS_P2;Temp;Humidity;BMP_temperature;BMP_pressure;BME280_temperature;BME280_humidity;BME280_pressure;Samples;Min_cycle;Max_cycle;Signal;HPM_P1;HPM_P2
2021/10/09 00:01:36;;;;;;;;;;;23.60;53.00;;;;;;495252;241;1059;-47
2021/10/09 00:03:38;;;;;;;;;;;23.50;53.00;;;;;;495384;240;1206;-47
2021/10/09 00:05:39;;;;;;;;;;;23.50;53.00;;;;;;495549;240;1257;-47
2021/10/09 00:07:40;;;;;;;;;;;23.50;53.00;;;;;;495138;241;1222;-47
2021/10/09 00:09:43;;;;;;;;;;;23.50;53.10;;;;;;495208;241;2190;-47
2021/10/09 00:11:43;;;;;;;;;;;23.50;53.00;;;;;;495143;240;2356;-47
2021/10/09 00:13:44;;;;;;;;;;;23.50;53.10;;;;;;495746;240;1067;-47
2021/10/09 00:15:46;;;;;;;;;;;23.50;53.00;;;;;;495290;240;1019;-47
2021/10/09 00:17:47;;;;;;;;;;;23.50;53.10;;;;;;495252;241;1331;-47
2021/10/09 00:19:48;;;;;;;;;;;23.50;53.10;;;;;;495279;241;1090;-47
2021/10/09 00:21:50;;;;;;;;;;;23.50;53.10;;;;;;495210;241;1240;-47
2021/10/09 00:23:51;;;;;;;;;;;23.50;53.10;;;;;;495322;241;1187;-47
2021/10/09 00:25:54;;;;;;;;;;;23.50;53.00;;;;;;495292;241;1039;-47
2021/10/09 00:27:54;;;;;;;;;;;23.60;53.00;;;;;;495179;240;2243;-47
2021/10/09 00:29:55;;;;;;;;;;;23.50;52.90;;;;;;495511;240;2190;-47
2021/10/09 00:31:56;;;;;;;;;;;23.50;52.90;;;;;;495471;240;1142;-47
2021/10/09 00:33:58;;;;;;;;;;;23.50;52.90;;;;;;495531;240;1059;-47
2021/10/09 00:35:59;;;;;;;;;;;23.60;52.90;;;;;;495262;241;1130;-47
2021/10/09 00:38:00;;;;;;;;;;;23.60;52.90;;;;;;495651;240;1323;-47
2021/10/09 00:40:01;;;;;;;;;;;23.60;53.00;;;;;;495781;240;972;-47
2021/10/09 00:42:04;;;;;;;;;;;23.50;53.00;;;;;;495450;240;1268;-47
2021/10/09 00:44:04;;;;;;;;;;;23.50;52.90;;;;;;495253;240;2198;-47
2021/10/09 00:46:05;;;;;;;;;;;23.50;53.00;;;;;;495577;240;1157;-47
2021/10/09 00:48:07;;;;;;;;;;;23.50;52.90;;;;;;495728;240;1179;-47
2021/10/09 00:50:08;;;;;;;;;;;23.60;53.00;;;;;;495626;240;2198;-47
2021/10/09 00:52:09;;;;;;;;;;;23.50;53.00;;;;;;495591;240;1273;-47
2021/10/09 00:54:11;;;;;;;;;;;23.50;52.90;;;;;;495410;240;1210;-47
2021/10/09 00:56:12;;;;;;;;;;;23.50;53.00;;;;;;495434;240;1312;-47
2021/10/09 00:58:13;;;;;;;;;;;23.50;52.90;;;;;;495236;241;1098;-47
2021/10/09 01:00:15;;;;;;;;;;;23.60;53.00;;;;;;495234;241;1039;-47
2021/10/09 01:02:16;;;;;;;;;;;23.50;53.00;;;;;;495235;240;1192;-47
2021/10/09 01:04:17;;;;;;;;;;;23.50;53.00;;;;;;495517;240;1187;-47
2021/10/09 01:06:19;;;;;;;;;;;23.60;53.00;;;;;;495195;241;1133;-47
2021/10/09 01:08:20;;;;;;;;;;;23.50;53.00;;;;;;495664;240;1208;-47
2021/10/09 01:10:21;;;;;;;;;;;23.50;52.90;;;;;;495289;240;2190;-47
2021/10/09 01:12:23;;;;;;;;;;;23.60;53.00;;;;;;495209;241;1093;-47
2021/10/09 01:14:24;;;;;;;;;;;23.60;53.00;;;;;;495728;240;1063;-47
2021/10/09 01:16:25;;;;;;;;;;;23.50;53.00;;;;;;495212;241;1343;-47
2021/10/09 01:18:27;;;;;;;;;;;23.50;53.00;;;;;;495256;240;1129;-47
2021/10/09 01:20:28;;;;;;;;;;;23.50;52.90;;;;;;495777;240;1242;-47
2021/10/09 01:22:29;;;;;;;;;;;23.50;52.90;;;;;;495468;240;1227;-47
2021/10/09 01:24:31;;;;;;;;;;;23.60;52.90;;;;;;495367;240;1193;-47
2021/10/09 01:26:32;;;;;;;;;;;23.50;53.00;;;;;;495312;240;1350;-47
2021/10/09 01:28:33;;;;;;;;;;;23.50;52.90;;;;;;495302;241;964;-47
2021/10/09 01:30:34;;;;;;;;;;;23.50;53.00;;;;;;495570;240;2182;-47
2021/10/09 01:32:36;;;;;;;;;;;23.50;52.90;;;;;;495239;241;1233;-47
2021/10/09 01:34:37;;;;;;;;;;;23.60;52.90;;;;;;495321;241;1070;-47
2021/10/09 01:36:38;;;;;;;;;;;23.60;52.90;;;;;;495470;240;1330;-47
2021/10/09 01:38:40;;;;;;;;;;;23.60;52.90;;;;;;495233;241;1275;-47
2021/10/09 01:40:41;;;;;;;;;;;23.60;53.00;;;;;;495696;240;1363;-47
2021/10/09 01:42:42;;;;;;;;;;;23.60;52.90;;;;;;495674;240;1088;-47
2021/10/09 01:44:44;;;;;;;;;;;23.50;52.80;;;;;;495745;240;1060;-47
2021/10/09 01:46:45;;;;;;;;;;;23.60;52.90;;;;;;495214;241;1101;-47
2021/10/09 01:48:46;;;;;;;;;;;23.50;52.90;;;;;;495645;240;1040;-47
2021/10/09 01:50:48;;;;;;;;;;;23.60;53.00;;;;;;495725;240;2111;-47
2021/10/09 01:52:49;;;;;;;;;;;23.50;52.90;;;;;;495729;240;1151;-46
2021/10/09 01:54:50;;;;;;;;;;;23.50;52.90;;;;;;495497;240;1475;-46
2021/10/09 01:56:51;;;;;;;;;;;23.60;52.90;;;;;;495289;240;1202;-47
2021/10/09 01:58:53;;;;;;;;;;;23.50;53.00;;;;;;495587;240;1134;-47
2021/10/09 02:00:54;;;;;;;;;;;23.50;53.00;;;;;;495307;237;1124;-47
2021/10/09 02:03:01;;;;;;;;;;;23.50;53.00;;;;;;495237;241;1243;-47
2021/10/09 02:04:57;;;;;;;;;;;23.50;53.00;;;;;;495453;240;2339;-47
2021/10/09 02:06:58;;;;;;;;;;;23.50;52.80;;;;;;495169;240;1328;-46
2021/10/09 02:09:00;;;;;;;;;;;23.50;52.90;;;;;;495274;241;1167;-47
2021/10/09 02:11:03;;;;;;;;;;;23.60;52.90;;;;;;495708;240;2115;-47
2021/10/09 02:13:05;;;;;;;;;;;23.50;52.80;;;;;;495186;240;2337;-46
2021/10/09 02:15:09;;;;;;;;;;;23.50;52.90;;;;;;495489;240;2132;-47
2021/10/09 02:26:30;;;;;;;;;;;23.60;52.80;;;;;;493226;239;1608;-47
2021/10/09 02:28:32;;;;;;;;;;;23.60;52.80;;;;;;495734;240;990;-47
2021/10/09 02:30:33;;;;;;;;;;;23.60;52.90;;;;;;495718;240;2114;-47
2021/10/09 02:32:34;;;;;;;;;;;23.60;52.80;;;;;;495728;240;1243;-47
2021/10/09 02:34:36;;;;;;;;;;;23.60;52.80;;;;;;495782;240;1034;-47
2021/10/09 02:36:37;;;;;;;;;;;23.60;52.80;;;;;;495423;240;1262;-47
2021/10/09 02:38:38;;;;;;;;;;;23.60;52.80;;;;;;495510;240;1055;-47
2021/10/09 02:40:40;;;;;;;;;;;23.60;52.80;;;;;;495409;240;1416;-47
2021/10/09 02:42:41;;;;;;;;;;;23.60;52.80;;;;;;495726;240;1177;-47
2021/10/09 02:44:42;;;;;;;;;;;23.60;52.80;;;;;;495721;240;1071;-47
2021/10/09 02:46:44;;;;;;;;;;;23.60;52.80;;;;;;495294;240;1235;-47
2021/10/09 02:48:45;;;;;;;;;;;23.60;52.70;;;;;;495681;240;1061;-47
2021/10/09 02:50:46;;;;;;;;;;;23.60;52.80;;;;;;495718;240;2186;-48
2021/10/09 02:52:48;;;;;;;;;;;23.50;52.80;;;;;;495380;240;1144;-47
2021/10/09 02:54:49;;;;;;;;;;;23.60;52.70;;;;;;495705;240;1203;-47
2021/10/09 02:56:50;;;;;;;;;;;23.60;52.80;;;;;;495218;241;1299;-47
2021/10/09 02:58:51;;;;;;;;;;;23.60;52.70;;;;;;495391;240;1054;-47
2021/10/09 03:00:53;;;;;;;;;;;23.60;52.70;;;;;;495213;240;1159;-47
2021/10/09 03:02:54;;;;;;;;;;;23.60;52.70;;;;;;495401;240;979;-47
2021/10/09 03:04:55;;;;;;;;;;;23.60;52.80;;;;;;495283;241;968;-47
2021/10/09 03:06:57;;;;;;;;;;;23.50;52.80;;;;;;495550;240;1445;-47
2021/10/09 03:08:58;;;;;;;;;;;23.50;52.80;;;;;;495790;240;1065;-47
2021/10/09 03:10:59;;;;;;;;;;;23.60;52.80;;;;;;495388;240;2131;-47
2021/10/09 03:13:01;;;;;;;;;;;23.50;52.80;;;;;;495335;240;1155;-47
2021/10/09 03:15:02;;;;;;;;;;;23.60;52.80;;;;;;495339;241;1241;-47
2021/10/09 03:17:03;;;;;;;;;;;23.60;52.80;;;;;;495691;240;1312;-47
2021/10/09 03:19:05;;;;;;;;;;;23.60;52.80;;;;;;495792;240;1015;-47
2021/10/09 03:21:06;;;;;;;;;;;23.60;52.70;;;;;;495660;240;1168;-46
2021/10/09 03:23:07;;;;;;;;;;;23.60;52.80;;;;;;495794;240;1117;-47
2021/10/09 03:25:09;;;;;;;;;;;23.60;52.70;;;;;;495619;240;1161;-47
2021/10/09 03:27:10;;;;;;;;;;;23.60;52.70;;;;;;495287;240;1141;-47
2021/10/09 03:29:11;;;;;;;;;;;23.60;52.70;;;;;;495345;241;1034;-47
2021/10/09 03:31:13;;;;;;;;;;;23.60;52.70;;;;;;495584;240;2119;-47
2021/10/09 03:33:14;;;;;;;;;;;23.60;52.60;;;;;;495650;240;1039;-47
2021/10/09 03:35:15;;;;;;;;;;;23.60;52.60;;;;;;495684;240;1049;-47
2021/10/09 03:37:16;;;;;;;;;;;23.60;52.50;;;;;;495241;241;1634;-47
2021/10/09 03:39:20;;;;;;;;;;;23.60;52.60;;;;;;495692;240;1061;-47
2021/10/09 03:41:19;;;;;;;;;;;23.60;52.70;;;;;;495107;240;2213;-47
2021/10/09 03:43:22;;;;;;;;;;;23.50;52.70;;;;;;495342;241;1079;-47
2021/10/09 03:45:27;;;;;;;;;;;23.60;52.70;;;;;;495239;240;1375;-47
2021/10/09 03:47:32;;;;;;;;;;;23.60;52.70;;;;;;495536;240;2356;-47
2021/10/09 03:49:37;;;;;;;;;;;23.60;52.70;;;;;;494902;240;1944;-47
2021/10/09 03:53:47;;;;;;;;;;;23.60;52.60;;;;;;495712;240;1043;-47
2021/10/09 03:55:48;;;;;;;;;;;23.60;52.70;;;;;;495484;240;1296;-47
2021/10/09 03:57:49;;;;;;;;;;;23.60;52.70;;;;;;495302;240;1184;-47
2021/10/09 03:59:50;;;;;;;;;;;23.60;52.60;;;;;;495707;240;1079;-46
2021/10/09 04:01:52;;;;;;;;;;;23.60;52.50;;;;;;495230;241;1126;-47
2021/10/09 04:03:54;;;;;;;;;;;23.60;52.60;;;;;;495686;240;1043;-47
2021/10/09 04:05:54;;;;;;;;;;;23.60;52.60;;;;;;495191;241;2797;-47
2021/10/09 04:07:56;;;;;;;;;;;23.60;52.70;;;;;;495725;240;1196;-47
2021/10/09 04:09:57;;;;;;;;;;;23.60;52.70;;;;;;495299;241;1095;-47
2021/10/09 04:11:58;;;;;;;;;;;23.60;52.60;;;;;;495404;240;2111;-47
2021/10/09 04:14:00;;;;;;;;;;;23.60;52.60;;;;;;495601;240;1003;-47
2021/10/09 04:16:01;;;;;;;;;;;23.60;52.60;;;;;;495624;240;1114;-47
2021/10/09 04:18:02;;;;;;;;;;;23.60;52.60;;;;;;495297;241;1167;-47
2021/10/09 04:20:04;;;;;;;;;;;23.60;52.50;;;;;;495804;240;1172;-47
2021/10/09 04:22:05;;;;;;;;;;;23.60;52.60;;;;;;495382;240;1230;-47
2021/10/09 04:24:06;;;;;;;;;;;23.60;52.60;;;;;;495320;241;1042;-47
2021/10/09 04:26:07;;;;;;;;;;;23.60;52.70;;;;;;495260;241;1201;-47
2021/10/09 04:28:09;;;;;;;;;;;23.60;52.60;;;;;;495657;240;1233;-47
2021/10/09 04:30:10;;;;;;;;;;;23.50;52.60;;;;;;495397;240;1063;-47
2021/10/09 04:32:12;;;;;;;;;;;23.60;52.60;;;;;;495518;240;2128;-47
2021/10/09 04:34:13;;;;;;;;;;;23.60;52.50;;;;;;495803;240;1179;-47
2021/10/09 04:36:14;;;;;;;;;;;23.60;52.50;;;;;;495726;240;1247;-47
2021/10/09 04:38:15;;;;;;;;;;;23.60;52.60;;;;;;495768;240;1310;-47
2021/10/09 04:40:17;;;;;;;;;;;23.60;52.50;;;;;;495306;241;976;-47
2021/10/09 04:42:18;;;;;;;;;;;23.60;52.50;;;;;;495168;241;1495;-47
2021/10/09 04:44:22;;;;;;;;;;;23.60;52.50;;;;;;495606;240;1027;-47
2021/10/09 04:46:21;;;;;;;;;;;23.60;52.60;;;;;;495191;240;2224;-47
2021/10/09 04:48:22;;;;;;;;;;;23.60;52.50;;;;;;495310;241;1076;-47
2021/10/09 04:50:23;;;;;;;;;;;23.60;52.60;;;;;;495742;240;1100;-47
2021/10/09 04:52:25;;;;;;;;;;;23.50;52.50;;;;;;495409;240;2205;-47
2021/10/09 04:54:26;;;;;;;;;;;23.60;52.50;;;;;;495302;241;1035;-47
2021/10/09 04:56:27;;;;;;;;;;;23.60;52.50;;;;;;495219;241;1218;-47
2021/10/09 04:58:29;;;;;;;;;;;23.60;52.40;;;;;;495317;241;1039;-47
2021/10/09 05:00:30;;;;;;;;;;;23.60;52.40;;;;;;495503;240;1688;-47
2021/10/09 05:02:31;;;;;;;;;;;23.70;52.50;;;;;;495352;240;1547;-47
2021/10/09 05:04:33;;;;;;;;;;;23.60;52.40;;;;;;495310;241;1085;-47
2021/10/09 05:06:34;;;;;;;;;;;23.60;52.50;;;;;;495181;241;1312;-47
2021/10/09 05:08:35;;;;;;;;;;;23.60;52.60;;;;;;495589;240;1165;-47
2021/10/09 05:10:37;;;;;;;;;;;23.60;52.50;;;;;;495676;240;1127;-47
2021/10/09 05:12:38;;;;;;;;;;;23.60;52.50;;;;;;495339;240;2205;-47
2021/10/09 05:14:39;;;;;;;;;;;23.60;52.40;;;;;;495779;240;1061;-47
2021/10/09 05:16:41;;;;;;;;;;;23.60;52.40;;;;;;495233;241;1345;-47
2021/10/09 05:18:42;;;;;;;;;;;23.60;52.40;;;;;;495230;241;1072;-47
2021/10/09 05:20:43;;;;;;;;;;;23.60;52.40;;;;;;495715;240;1050;-47
2021/10/09 05:22:45;;;;;;;;;;;23.60;52.50;;;;;;495527;240;1044;-47
2021/10/09 05:24:49;;;;;;;;;;;23.60;52.40;;;;;;495718;240;1180;-47
2021/10/09 05:26:48;;;;;;;;;;;23.60;52.40;;;;;;495465;240;2171;-47
2021/10/09 05:28:50;;;;;;;;;;;23.60;52.40;;;;;;495678;240;1114;-47
2021/10/09 05:30:55;;;;;;;;;;;23.60;52.40;;;;;;495665;240;2317;-47
2021/10/09 05:32:59;;;;;;;;;;;23.70;52.40;;;;;;495462;240;2112;-47
2021/10/09 05:35:00;;;;;;;;;;;23.70;52.40;;;;;;495758;240;1044;-47
2021/10/09 05:37:02;;;;;;;;;;;23.60;52.40;;;;;;495383;240;1344;-47
2021/10/09 05:39:03;;;;;;;;;;;23.60;52.40;;;;;;495766;240;1051;-47
2021/10/09 05:41:04;;;;;;;;;;;23.60;52.40;;;;;;495411;240;1193;-47
2021/10/09 05:43:06;;;;;;;;;;;23.60;52.40;;;;;;495298;241;1796;-47
2021/10/09 05:45:07;;;;;;;;;;;23.60;52.50;;;;;;495784;240;1022;-47
2021/10/09 05:47:08;;;;;;;;;;;23.60;52.50;;;;;;495423;240;1335;-47
2021/10/09 05:49:10;;;;;;;;;;;23.60;52.50;;;;;;495286;241;1056;-47
2021/10/09 05:51:15;;;;;;;;;;;23.60;52.40;;;;;;495246;240;2344;-47
2021/10/09 05:53:26;;;;;;;;;;;23.60;52.40;;;;;;495550;240;2292;-47
2021/10/09 05:55:19;;;;;;;;;;;23.60;52.40;;;;;;494480;240;2198;-47
2021/10/09 05:57:26;;;;;;;;;;;23.60;52.40;;;;;;495086;240;2182;-47
2021/10/09 06:25:54;;;;;;;;;;;23.60;52.40;;;;;;495233;240;1091;-47
2021/10/09 06:44:41;;;;;;;;;;;23.60;52.30;;;;;;495752;240;1091;-47
2021/10/09 06:46:58;;;;;;;;;;;23.70;52.30;;;;;;494962;240;2064;-47
2021/10/09 06:49:17;;;;;;;;;;;23.60;52.30;;;;;;494839;241;2128;-47
2021/10/09 07:00:51;;;;;;;;;;;23.60;52.30;;;;;;495298;240;1860;-47
2021/10/09 07:02:53;;;;;;;;;;;23.60;52.30;;;;;;495697;240;1340;-47
2021/10/09 07:04:54;;;;;;;;;;;23.60;52.30;;;;;;495538;240;1107;-47
2021/10/09 07:06:57;;;;;;;;;;;23.70;52.30;;;;;;495243;240;1336;-47
2021/10/09 07:08:57;;;;;;;;;;;23.60;52.30;;;;;;495260;240;2288;-47
2021/10/09 07:11:01;;;;;;;;;;;23.60;52.20;;;;;;495524;240;1377;-47
2021/10/09 07:12:59;;;;;;;;;;;23.70;52.30;;;;;;495199;240;2198;-47
2021/10/09 07:15:01;;;;;;;;;;;23.70;52.30;;;;;;495547;240;1035;-47
2021/10/09 07:17:02;;;;;;;;;;;23.60;52.20;;;;;;495217;241;1324;-47
2021/10/09 07:19:04;;;;;;;;;;;23.70;52.20;;;;;;495494;240;1024;-47
2021/10/09 07:21:05;;;;;;;;;;;23.60;52.20;;;;;;495229;240;2289;-47
2021/10/09 07:23:07;;;;;;;;;;;23.60;52.20;;;;;;495620;240;1297;-47
2021/10/09 07:25:07;;;;;;;;;;;23.70;52.20;;;;;;495111;240;2283;-47
2021/10/09 07:27:09;;;;;;;;;;;23.70;52.10;;;;;;495632;240;1226;-47
2021/10/09 07:29:10;;;;;;;;;;;23.70;52.10;;;;;;495463;240;1180;-47
2021/10/09 07:31:11;;;;;;;;;;;23.70;52.20;;;;;;495261;241;1387;-47
2021/10/09 07:33:13;;;;;;;;;;;23.60;52.20;;;;;;495603;240;2253;-47
2021/10/09 07:35:14;;;;;;;;;;;23.60;52.30;;;;;;495609;240;1061;-47
2021/10/09 07:37:16;;;;;;;;;;;23.60;52.30;;;;;;495258;240;1547;-47
2021/10/09 07:39:17;;;;;;;;;;;23.60;52.20;;;;;;495431;240;1054;-47
2021/10/09 07:41:18;;;;;;;;;;;23.60;52.20;;;;;;495480;240;1316;-47
2021/10/09 07:43:20;;;;;;;;;;;23.60;52.20;;;;;;495279;241;1613;-47
2021/10/09 07:45:21;;;;;;;;;;;23.70;52.20;;;;;;495298;241;1326;-47
2021/10/09 07:47:22;;;;;;;;;;;23.70;52.20;;;;;;495450;240;1476;-47
2021/10/09 07:49:23;;;;;;;;;;;23.60;52.20;;;;;;495405;240;1122;-47
2021/10/09 07:51:25;;;;;;;;;;;23.60;52.20;;;;;;495631;240;1549;-47
2021/10/09 07:53:26;;;;;;;;;;;23.60;52.20;;;;;;495659;240;2186;-47
2021/10/09 07:55:27;;;;;;;;;;;23.60;52.20;;;;;;495280;241;1058;-47
2021/10/09 07:57:29;;;;;;;;;;;23.70;52.20;;;;;;495329;240;1243;-47
2021/10/09 07:59:30;;;;;;;;;;;23.60;52.20;;;;;;495275;240;1208;-47
2021/10/09 08:01:32;;;;;;;;;;;23.60;52.30;;;;;;495147;241;1153;-47
2021/10/09 08:03:33;;;;;;;;;;;23.60;52.20;;;;;;495330;240;1551;-47
2021/10/09 08:05:35;;;;;;;;;;;23.60;52.20;;;;;;495237;241;1030;-47
2021/10/09 08:07:35;;;;;;;;;;;23.60;52.20;;;;;;495237;241;2341;-47
2021/10/09 08:09:37;;;;;;;;;;;23.60;52.20;;;;;;495670;240;1094;-47
2021/10/09 08:11:38;;;;;;;;;;;23.60;52.20;;;;;;495501;240;2136;-48
2021/10/09 08:13:39;;;;;;;;;;;23.60;52.20;;;;;;495261;241;1178;-47
2021/10/09 08:15:41;;;;;;;;;;;23.70;52.20;;;;;;495435;240;1224;-47
2021/10/09 08:17:43;;;;;;;;;;;23.60;52.10;;;;;;495244;241;1135;-47
2021/10/09 08:19:44;;;;;;;;;;;23.70;52.10;;;;;;495775;240;1079;-47
2021/10/09 08:21:45;;;;;;;;;;;23.70;52.10;;;;;;495550;240;1333;-47
2021/10/09 08:23:48;;;;;;;;;;;23.60;52.10;;;;;;495335;240;1230;-47
2021/10/09 08:26:05;;;;;;;;;;;23.60;52.10;;;;;;495164;240;2167;-47
2021/10/09 08:35:50;;;;;;;;;;;23.60;52.10;;;;;;480750;248;1242;-47
2021/10/09 08:39:59;;;;;;;;;;;23.60;52.10;;;;;;483807;239;1159;-47
2021/10/09 08:42:01;;;;;;;;;;;23.60;52.10;;;;;;495318;240;1121;-47
2021/10/09 08:44:02;;;;;;;;;;;23.70;52.10;;;;;;495250;241;1273;-47
2021/10/09 08:46:03;;;;;;;;;;;23.70;52.10;;;;;;495560;240;1370;-47
2021/10/09 08:48:05;;;;;;;;;;;23.70;52.00;;;;;;495245;241;1085;-46
2021/10/09 08:50:06;;;;;;;;;;;23.70;52.00;;;;;;495694;240;988;-47
2021/10/09 08:52:07;;;;;;;;;;;23.70;52.00;;;;;;495311;240;2127;-47
2021/10/09 08:54:09;;;;;;;;;;;23.70;52.10;;;;;;495764;240;1039;-47
2021/10/09 08:56:10;;;;;;;;;;;23.70;52.10;;;;;;495492;240;1124;-47
2021/10/09 08:58:13;;;;;;;;;;;23.60;52.10;;;;;;495354;241;1094;-47
2021/10/09 09:00:13;;;;;;;;;;;23.70;52.10;;;;;;495342;240;2563;-47
2021/10/09 09:02:17;;;;;;;;;;;23.70;52.10;;;;;;495765;240;1035;-47
2021/10/09 09:04:31;;;;;;;;;;;23.70;52.00;;;;;;495594;240;2303;-47
2021/10/09 09:06:36;;;;;;;;;;;23.70;52.00;;;;;;494650;240;2552;-47
2021/10/09 09:31:52;;;;;;;;;;;23.70;52.10;;;;;;495250;240;1245;-47
2021/10/09 09:34:04;;;;;;;;;;;23.60;52.00;;;;;;495047;240;2256;-47
2021/10/09 09:36:10;;;;;;;;;;;23.60;52.10;;;;;;494840;240;2107;-47
2021/10/09 09:40:39;;;;;;;;;;;23.60;52.10;;;;;;495412;240;1038;-47
2021/10/09 09:42:40;;;;;;;;;;;23.60;52.10;;;;;;495254;241;1213;-47
2021/10/09 09:44:41;;;;;;;;;;;23.60;52.00;;;;;;495340;241;1160;-47
2021/10/09 09:46:43;;;;;;;;;;;23.60;52.10;;;;;;495719;240;1159;-47
2021/10/09 09:48:44;;;;;;;;;;;23.60;52.10;;;;;;495518;240;1090;-47
2021/10/09 09:50:45;;;;;;;;;;;23.60;52.10;;;;;;495690;240;1093;-47
2021/10/09 09:52:47;;;;;;;;;;;23.70;52.00;;;;;;495288;240;2119;-47
2021/10/09 09:54:48;;;;;;;;;;;23.70;52.00;;;;;;495384;240;1076;-47
2021/10/09 09:56:49;;;;;;;;;;;23.70;51.90;;;;;;495716;240;1321;-47
2021/10/09 09:58:50;;;;;;;;;;;23.70;51.90;;;;;;495282;240;1949;-47
2021/10/09 10:00:52;;;;;;;;;;;23.70;51.90;;;;;;495428;240;1211;-46
2021/10/09 10:02:53;;;;;;;;;;;23.70;51.90;;;;;;495381;240;1188;-47
2021/10/09 10:04:54;;;;;;;;;;;23.70;51.90;;;;;;495285;241;1077;-47
2021/10/09 10:06:56;;;;;;;;;;;23.60;51.90;;;;;;495607;240;1340;-47
2021/10/09 10:08:57;;;;;;;;;;;23.70;51.90;;;;;;495759;240;1040;-47
2021/10/09 10:10:58;;;;;;;;;;;23.70;52.00;;;;;;495393;240;1299;-46
2021/10/09 10:13:00;;;;;;;;;;;23.70;52.00;;;;;;495708;240;2186;-47
2021/10/09 10:15:01;;;;;;;;;;;23.70;52.00;;;;;;495611;240;1181;-47
2021/10/09 10:17:02;;;;;;;;;;;23.70;52.00;;;;;;495483;240;1284;-47
2021/10/09 10:19:04;;;;;;;;;;;23.60;52.10;;;;;;495265;241;1185;-47
2021/10/09 10:21:05;;;;;;;;;;;23.70;52.00;;;;;;495172;241;1239;-47
2021/10/09 10:23:06;;;;;;;;;;;23.70;51.90;;;;;;495538;240;1151;-47
2021/10/09 10:25:09;;;;;;;;;;;23.70;51.90;;;;;;495604;240;1062;-47
2021/10/09 10:27:09;;;;;;;;;;;23.60;52.00;;;;;;495086;240;2228;-47
2021/10/09 10:29:10;;;;;;;;;;;23.60;52.10;;;;;;495625;240;1054;-47
2021/10/09 10:31:11;;;;;;;;;;;23.70;52.00;;;;;;495391;240;1275;-47
2021/10/09 10:33:18;;;;;;;;;;;23.60;52.00;;;;;;495259;241;2181;-47
2021/10/09 10:35:14;;;;;;;;;;;23.60;52.00;;;;;;494981;240;2527;-47
2021/10/09 10:37:15;;;;;;;;;;;23.70;51.90;;;;;;495455;240;1193;-47
2021/10/09 10:39:20;;;;;;;;;;;23.70;52.00;;;;;;495441;240;1108;-47
2021/10/09 10:41:21;;;;;;;;;;;23.60;52.00;;;;;;495010;240;1552;-47
2021/10/09 10:43:21;;;;;;;;;;;23.60;52.00;;;;;;495398;240;2483;-47
2021/10/09 10:45:26;;;;;;;;;;;23.70;52.10;;;;;;495587;240;1237;-47
2021/10/09 10:47:24;;;;;;;;;;;23.70;52.00;;;;;;495383;240;2150;-47
2021/10/09 10:49:35;;;;;;;;;;;23.60;52.00;;;;;;495675;240;1074;-47
2021/10/09 10:51:27;;;;;;;;;;;23.70;52.00;;;;;;495052;240;1824;-47
2021/10/09 10:53:33;;;;;;;;;;;23.70;51.90;;;;;;495298;241;2123;-47
2021/10/09 10:55:29;;;;;;;;;;;23.70;52.00;;;;;;494960;240;2223;-47
2021/10/09 10:57:31;;;;;;;;;;;23.70;52.00;;;;;;495416;240;1130;-47
2021/10/09 10:59:32;;;;;;;;;;;23.60;51.90;;;;;;495323;241;1028;-47
2021/10/09 11:01:33;;;;;;;;;;;23.60;51.90;;;;;;495288;240;1389;-47
2021/10/09 11:03:35;;;;;;;;;;;23.70;51.90;;;;;;495780;240;1206;-47
2021/10/09 11:05:36;;;;;;;;;;;23.70;51.90;;;;;;495316;241;1079;-47
2021/10/09 11:07:37;;;;;;;;;;;23.70;51.80;;;;;;495710;240;1584;-47
2021/10/09 11:09:39;;;;;;;;;;;23.70;51.80;;;;;;495764;240;1074;-47
2021/10/09 11:11:42;;;;;;;;;;;23.70;51.90;;;;;;495524;240;1461;-47
2021/10/09 11:13:41;;;;;;;;;;;23.70;51.80;;;;;;495111;240;2233;-47
2021/10/09 11:15:42;;;;;;;;;;;23.70;51.90;;;;;;495732;240;1215;-47
2021/10/09 11:17:44;;;;;;;;;;;23.70;51.90;;;;;;495282;241;1158;-47
2021/10/09 11:19:45;;;;;;;;;;;23.70;51.90;;;;;;495789;240;1047;-47
2021/10/09 11:21:47;;;;;;;;;;;23.70;51.90;;;;;;495339;240;1342;-47
2021/10/09 11:23:48;;;;;;;;;;;23.60;51.90;;;;;;495700;240;1060;-47
2021/10/09 11:25:49;;;;;;;;;;;23.70;51.80;;;;;;495218;241;1183;-47
2021/10/09 11:27:51;;;;;;;;;;;23.70;51.80;;;;;;495221;241;1169;-47
2021/10/09 11:29:52;;;;;;;;;;;23.70;51.90;;;;;;495616;240;1120;-47
2021/10/09 11:31:53;;;;;;;;;;;23.70;51.90;;;;;;495277;240;1279;-47
2021/10/09 11:33:55;;;;;;;;;;;23.70;51.90;;;;;;495262;240;2123;-47
2021/10/09 11:35:57;;;;;;;;;;;23.60;51.90;;;;;;495503;240;1474;-47
2021/10/09 11:37:58;;;;;;;;;;;23.70;51.90;;;;;;495623;240;1021;-47
2021/10/09 11:40:01;;;;;;;;;;;23.70;51.90;;;;;;495430;240;1061;-47
2021/10/09 11:42:01;;;;;;;;;;;23.70;51.90;;;;;;495102;240;2187;-47
2021/10/09 11:44:05;;;;;;;;;;;23.70;51.80;;;;;;495704;240;1076;-47
2021/10/09 11:46:10;;;;;;;;;;;23.70;51.80;;;;;;495358;240;2715;-47
2021/10/09 11:55:14;;;;;;;;;;;23.70;51.80;;;;;;495781;239;1243;-47
2021/10/09 11:57:15;;;;;;;;;;;23.70;51.80;;;;;;495269;241;1042;-47
2021/10/09 11:59:16;;;;;;;;;;;23.70;51.80;;;;;;495334;241;1027;-47
2021/10/09 12:01:18;;;;;;;;;;;23.70;51.70;;;;;;495273;241;1465;-47
2021/10/09 12:03:19;;;;;;;;;;;23.70;51.80;;;;;;495277;241;1321;-47
2021/10/09 12:05:20;;;;;;;;;;;23.70;51.90;;;;;;495283;241;1162;-46
2021/10/09 12:07:22;;;;;;;;;;;23.70;51.80;;;;;;495244;241;1250;-47
2021/10/09 12:09:23;;;;;;;;;;;23.70;51.90;;;;;;495799;240;1084;-47
2021/10/09 12:11:25;;;;;;;;;;;23.70;51.80;;;;;;495254;241;1201;-47
2021/10/09 12:13:26;;;;;;;;;;;23.70;51.80;;;;;;495328;240;2185;-47
2021/10/09 12:15:27;;;;;;;;;;;23.70;51.80;;;;;;495316;241;1135;-47
2021/10/09 12:17:29;;;;;;;;;;;23.70;51.80;;;;;;495390;240;1398;-47
2021/10/09 12:19:30;;;;;;;;;;;23.70;51.80;;;;;;495325;241;1020;-47
2021/10/09 12:21:31;;;;;;;;;;;23.70;51.70;;;;;;495241;241;1158;-47
2021/10/09 12:23:33;;;;;;;;;;;23.70;51.80;;;;;;495302;241;1063;-47
2021/10/09 12:25:34;;;;;;;;;;;23.70;51.80;;;;;;495664;240;1186;-47
2021/10/09 12:27:35;;;;;;;;;;;23.70;51.80;;;;;;495336;240;1216;-47
2021/10/09 12:29:37;;;;;;;;;;;23.70;51.80;;;;;;495166;241;1027;-47
2021/10/09 12:31:38;;;;;;;;;;;23.80;51.70;;;;;;495133;237;1197;-47
2021/10/09 12:33:39;;;;;;;;;;;23.70;51.70;;;;;;495666;240;2107;-47
2021/10/09 12:35:41;;;;;;;;;;;23.70;51.70;;;;;;495706;240;1171;-47
2021/10/09 12:37:42;;;;;;;;;;;23.70;51.70;;;;;;495216;241;1124;-47
2021/10/09 12:39:43;;;;;;;;;;;23.70;51.70;;;;;;495766;240;1024;-47
2021/10/09 12:41:45;;;;;;;;;;;23.70;51.60;;;;;;495505;240;1223;-47
2021/10/09 12:43:46;;;;;;;;;;;23.70;51.70;;;;;;495426;240;1165;-47
2021/10/09 12:45:47;;;;;;;;;;;23.70;51.70;;;;;;495497;240;1241;-47
2021/10/09 12:47:49;;;;;;;;;;;23.70;51.60;;;;;;495285;240;1191;-47
2021/10/09 12:49:50;;;;;;;;;;;23.70;51.70;;;;;;495294;240;1056;-47
2021/10/09 12:51:51;;;;;;;;;;;23.70;51.70;;;;;;495362;240;1351;-47
2021/10/09 12:53:55;;;;;;;;;;;23.70;51.80;;;;;;495293;241;2186;-47
2021/10/09 12:55:54;;;;;;;;;;;23.70;51.80;;;;;;495154;240;2424;-47
2021/10/09 12:57:56;;;;;;;;;;;23.70;51.80;;;;;;495288;240;1391;-47
2021/10/09 12:59:57;;;;;;;;;;;23.70;51.70;;;;;;495317;240;1055;-47
2021/10/09 13:01:58;;;;;;;;;;;23.70;51.70;;;;;;495263;240;1232;-47
2021/10/09 13:04:00;;;;;;;;;;;23.70;51.80;;;;;;495179;241;1115;-47
2021/10/09 13:06:01;;;;;;;;;;;23.70;51.70;;;;;;495263;241;1074;-46
2021/10/09 13:08:04;;;;;;;;;;;23.70;51.70;;;;;;495450;240;1167;-47
2021/10/09 13:10:03;;;;;;;;;;;23.70;51.70;;;;;;495577;240;2151;-47
2021/10/09 13:12:07;;;;;;;;;;;23.70;51.70;;;;;;495270;240;1227;-47
2021/10/09 13:14:06;;;;;;;;;;;23.70;51.70;;;;;;495127;240;2186;-47
2021/10/09 13:16:07;;;;;;;;;;;23.70;51.70;;;;;;495254;241;1185;-46
2021/10/09 13:18:09;;;;;;;;;;;23.70;51.60;;;;;;495290;240;1127;-47
2021/10/09 13:20:10;;;;;;;;;;;23.70;51.60;;;;;;495731;240;960;-47
2021/10/09 13:22:11;;;;;;;;;;;23.70;51.70;;;;;;495225;241;1280;-47
2021/10/09 13:24:13;;;;;;;;;;;23.70;51.70;;;;;;495666;240;1026;-47
2021/10/09 13:26:14;;;;;;;;;;;23.70;51.70;;;;;;495464;240;1340;-47
2021/10/09 13:28:15;;;;;;;;;;;23.70;51.70;;;;;;495255;241;1028;-47
2021/10/09 13:30:17;;;;;;;;;;;23.70;51.70;;;;;;495219;241;1064;-47
2021/10/09 13:32:18;;;;;;;;;;;23.70;51.70;;;;;;495591;240;1201;-47
2021/10/09 13:34:19;;;;;;;;;;;23.70;51.80;;;;;;495400;240;2127;-47
2021/10/09 13:36:21;;;;;;;;;;;23.70;51.80;;;;;;495247;241;1340;-47
2021/10/09 13:38:22;;;;;;;;;;;23.70;51.80;;;;;;495658;240;1030;-47
2021/10/09 13:40:23;;;;;;;;;;;23.70;51.70;;;;;;495710;240;1158;-47
2021/10/09 13:42:25;;;;;;;;;;;23.70;51.60;;;;;;495180;240;1301;-47
2021/10/09 13:44:27;;;;;;;;;;;23.70;51.60;;;;;;495535;240;1046;-47
2021/10/09 13:46:28;;;;;;;;;;;23.70;51.70;;;;;;495233;240;2161;-47